createdAt,value
2018-10-09T00:00:04.424Z,15.60
2018-10-09T00:04:57.105Z,15.60
2018-10-09T00:09:49.913Z,15.63
2018-10-09T00:14:42.541Z,15.57
2018-10-09T00:19:35.305Z,15.77
2018-10-09T00:24:27.890Z,15.70
2018-10-09T00:29:20.525Z,16.00
2018-10-09T00:34:13.218Z,15.50
2018-10-09T00:39:07.785Z,15.37
2018-10-09T00:44:00.417Z,16.23
2018-10-09T00:48:53.046Z,15.90
2018-10-09T00:53:45.742Z,14.60
2018-10-09T00:58:38.560Z,14.37
2018-10-09T01:03:31.854Z,13.87
2018-10-09T01:08:24.538Z,14.10
2018-10-09T01:13:17.305Z,13.97
2018-10-09T01:18:10.011Z,14.13
2018-10-09T01:23:04.225Z,13.97
2018-10-09T01:27:56.968Z,13.00
2018-10-09T01:32:49.590Z,12.67
2018-10-09T01:37:42.328Z,13.47
2018-10-09T01:42:34.990Z,12.83
2018-10-09T01:47:27.550Z,12.87
2018-10-09T01:52:20.178Z,12.80
2018-10-09T01:57:12.818Z,13.17
2018-10-09T02:02:05.513Z,12.80
2018-10-09T02:06:58.110Z,13.17
2018-10-09T02:11:50.749Z,12.60
2018-10-09T02:16:43.460Z,12.80
2018-10-09T02:21:36.089Z,12.37
2018-10-09T02:26:28.728Z,12.23
2018-10-09T02:31:21.321Z,13.40
2018-10-09T02:36:14.286Z,12.70
2018-10-09T02:41:06.949Z,12.47
2018-10-09T02:45:59.596Z,13.77
2018-10-09T02:50:52.190Z,13.27
2018-10-09T02:55:44.819Z,13.70
2018-10-09T03:00:37.430Z,15.43
2018-10-09T03:05:30.055Z,14.70
2018-10-09T03:10:22.681Z,15.83
2018-10-09T03:15:15.366Z,16.43
2018-10-09T03:20:08.182Z,17.23
2018-10-09T03:25:00.878Z,16.00
2018-10-09T03:29:53.762Z,16.80
2018-10-09T03:34:46.408Z,15.93
2018-10-09T03:39:38.999Z,15.47
2018-10-09T03:44:31.704Z,15.50
2018-10-09T03:49:24.459Z,14.90
2018-10-09T03:54:17.107Z,15.47
2018-10-09T03:59:09.794Z,14.57
2018-10-09T04:04:02.412Z,14.93
2018-10-09T04:08:55.191Z,14.93
2018-10-09T04:13:48.193Z,14.20
2018-10-09T04:18:41.445Z,14.00
2018-10-09T04:23:34.159Z,15.20
2018-10-09T04:28:26.803Z,15.37
2018-10-09T04:33:19.638Z,14.50
2018-10-09T04:38:12.272Z,14.90
2018-10-09T04:43:05.305Z,14.57
2018-10-09T04:47:59.277Z,14.70
2018-10-09T04:52:51.973Z,15.90
2018-10-09T04:57:44.622Z,15.07
2018-10-09T05:02:37.517Z,15.50
2018-10-09T05:07:30.152Z,15.17
2018-10-09T05:12:22.885Z,15.83
2018-10-09T05:17:15.781Z,15.90
2018-10-09T05:22:08.504Z,16.27
2018-10-09T05:27:01.249Z,15.20
2018-10-09T05:31:53.832Z,14.80
2018-10-09T05:36:46.615Z,15.97
2018-10-09T05:41:39.238Z,16.03
2018-10-09T05:46:31.996Z,16.90
2018-10-09T05:51:24.774Z,16.00
2018-10-09T05:56:17.498Z,15.40
2018-10-09T06:01:10.129Z,16.30
2018-10-09T06:06:02.963Z,16.27
2018-10-09T06:10:55.652Z,16.50
2018-10-09T06:15:48.513Z,18.27
2018-10-09T06:20:41.204Z,18.60
2018-10-09T06:25:33.870Z,18.27
2018-10-09T06:30:26.572Z,18.33
2018-10-09T06:35:19.281Z,18.97
2018-10-09T06:40:11.909Z,20.87
2018-10-09T06:45:04.850Z,20.67
2018-10-09T06:49:57.485Z,22.47
2018-10-09T06:54:50.195Z,23.50
2018-10-09T06:59:42.776Z,23.57
2018-10-09T07:04:35.435Z,24.77
2018-10-09T07:09:28.143Z,24.50
2018-10-09T07:14:20.864Z,25.30
2018-10-09T07:19:13.579Z,25.77
2018-10-09T07:24:06.226Z,26.23
2018-10-09T07:28:58.891Z,24.67
2018-10-09T07:33:51.635Z,24.53
2018-10-09T07:38:44.358Z,26.77
2018-10-09T07:43:37.186Z,27.33
2018-10-09T07:48:29.873Z,25.60
2018-10-09T07:53:22.582Z,26.53
2018-10-09T07:58:15.390Z,28.60
2018-10-09T08:03:08.049Z,25.63
2018-10-09T08:08:00.664Z,29.20
2018-10-09T08:12:53.415Z,27.90
2018-10-09T08:17:46.163Z,28.60
2018-10-09T08:22:38.928Z,30.27
2018-10-09T08:27:31.830Z,29.30
2018-10-09T08:32:24.659Z,29.43
2018-10-09T08:37:17.363Z,27.43
2018-10-09T08:42:10.402Z,27.93
2018-10-09T08:47:03.270Z,28.53
2018-10-09T08:51:56.091Z,27.53
2018-10-09T08:56:48.667Z,25.47
2018-10-09T09:01:41.427Z,27.87
2018-10-09T09:06:34.425Z,29.63
2018-10-09T09:11:27.297Z,26.83
2018-10-09T09:16:20.824Z,27.57
2018-10-09T09:21:13.984Z,27.37
2018-10-09T09:26:06.873Z,27.43
2018-10-09T09:30:59.823Z,26.63
2018-10-09T09:35:52.754Z,28.17
2018-10-09T09:40:46.118Z,26.40
2018-10-09T09:45:39.212Z,23.83
2018-10-09T09:50:32.317Z,22.77
2018-10-09T09:55:25.214Z,22.63
2018-10-09T10:00:23.842Z,21.00
2018-10-09T10:05:16.555Z,19.63
2018-10-09T10:10:09.206Z,18.30
2018-10-09T10:15:01.987Z,17.63
2018-10-09T10:19:54.657Z,16.23
2018-10-09T10:24:47.329Z,17.93
2018-10-09T10:29:40.021Z,16.57
2018-10-09T10:34:32.758Z,14.00
2018-10-09T10:39:25.558Z,10.97
2018-10-09T10:44:18.177Z,12.17
2018-10-09T10:49:12.650Z,11.90
2018-10-09T10:54:05.478Z,12.83
2018-10-09T10:58:58.233Z,12.00
2018-10-09T11:03:51.180Z,11.00
2018-10-09T11:08:44.114Z,11.17
2018-10-09T11:13:37.235Z,10.50
2018-10-09T11:18:29.932Z,10.33
2018-10-09T11:23:22.605Z,10.70
2018-10-09T11:28:15.236Z,9.93
2018-10-09T11:33:07.991Z,11.03
2018-10-09T11:38:00.642Z,10.43
2018-10-09T11:42:53.441Z,9.53
2018-10-09T11:47:46.030Z,8.87
2018-10-09T11:52:38.686Z,10.10
2018-10-09T11:57:31.470Z,8.70
2018-10-09T12:02:24.167Z,8.87
2018-10-09T12:07:16.775Z,9.37
2018-10-09T12:12:09.390Z,9.60
2018-10-09T12:17:02.185Z,9.07
2018-10-09T12:21:55.043Z,8.70
2018-10-09T12:26:47.677Z,8.13
2018-10-09T12:31:40.452Z,8.37
2018-10-09T12:36:33.392Z,8.00
2018-10-09T12:41:26.319Z,8.80
2018-10-09T12:46:19.139Z,8.80
2018-10-09T12:51:11.732Z,8.10
2018-10-09T12:56:04.470Z,7.93
2018-10-09T13:00:57.114Z,8.87
2018-10-09T13:05:49.797Z,8.43
2018-10-09T13:10:42.470Z,9.10
2018-10-09T13:15:35.091Z,9.37
2018-10-09T13:20:27.826Z,9.13
2018-10-09T13:25:20.598Z,9.07
2018-10-09T13:30:13.348Z,9.63
2018-10-09T13:35:05.970Z,9.00
2018-10-09T13:39:58.589Z,8.30
2018-10-09T13:44:51.291Z,9.03
2018-10-09T13:49:44.019Z,9.20
2018-10-09T13:54:36.756Z,8.97
2018-10-09T13:59:29.479Z,9.57
2018-10-09T14:04:22.177Z,8.93
2018-10-09T14:09:14.919Z,8.70
2018-10-09T14:14:07.563Z,8.63
2018-10-09T14:19:00.229Z,9.23
2018-10-09T14:23:53.028Z,8.87
2018-10-09T14:28:45.771Z,9.43
2018-10-09T14:33:38.412Z,9.50
2018-10-09T14:38:31.102Z,9.27
2018-10-09T14:43:23.782Z,9.00
2018-10-09T14:48:16.445Z,9.33
2018-10-09T14:53:09.026Z,9.03
2018-10-09T14:58:01.765Z,9.53
2018-10-09T15:02:54.430Z,10.10
2018-10-09T15:07:47.043Z,9.30
2018-10-09T15:12:39.727Z,9.67
2018-10-09T15:17:32.395Z,9.80
2018-10-09T15:22:25.009Z,9.77
2018-10-09T15:27:17.664Z,9.23
2018-10-09T15:32:10.362Z,10.13
2018-10-09T15:37:03.067Z,9.40
2018-10-09T15:41:56.454Z,9.67
2018-10-09T15:46:49.103Z,9.73
2018-10-09T15:51:41.841Z,9.27
2018-10-09T15:56:34.614Z,10.17
2018-10-09T16:01:27.282Z,9.70
2018-10-09T16:06:19.990Z,9.27
2018-10-09T16:11:12.787Z,10.13
2018-10-09T16:16:05.652Z,9.30
2018-10-09T16:20:58.438Z,12.50
2018-10-09T16:25:51.199Z,12.57
2018-10-09T16:30:43.946Z,12.33
2018-10-09T16:35:36.919Z,10.80
2018-10-09T16:40:29.701Z,11.73
2018-10-09T16:45:22.317Z,11.63
2018-10-09T16:50:14.859Z,13.10
2018-10-09T16:55:07.549Z,13.00
2018-10-09T17:00:00.217Z,15.77
2018-10-09T17:04:52.954Z,15.87
2018-10-09T17:09:45.853Z,14.67
2018-10-09T17:14:38.388Z,15.47
2018-10-09T17:19:31.093Z,14.23
2018-10-09T17:24:23.828Z,15.23
2018-10-09T17:29:16.490Z,15.70
2018-10-09T17:34:08.971Z,15.60
2018-10-09T17:39:01.630Z,16.60
2018-10-09T17:43:54.327Z,15.67
2018-10-09T17:48:47.004Z,15.90
2018-10-09T17:53:39.691Z,15.97
2018-10-09T17:58:32.680Z,15.27
2018-10-09T18:03:25.379Z,15.10
2018-10-09T18:08:18.679Z,15.83
2018-10-09T18:13:11.306Z,16.90
2018-10-09T18:18:04.209Z,16.93
2018-10-09T18:22:56.893Z,18.00
2018-10-09T18:27:49.560Z,19.03
2018-10-09T18:32:42.585Z,19.13
2018-10-09T18:37:35.013Z,18.20
2018-10-09T18:42:27.608Z,19.17
2018-10-09T18:47:25.951Z,18.70
2018-10-09T18:52:18.524Z,19.60
2018-10-09T18:57:11.084Z,18.97
2018-10-09T19:02:03.877Z,18.87
2018-10-09T19:06:56.591Z,19.60
2018-10-09T19:11:49.330Z,18.63
2018-10-09T19:16:42.011Z,18.67
2018-10-09T19:21:34.759Z,18.80
2018-10-09T19:26:27.414Z,19.07
2018-10-09T19:31:20.165Z,20.30
2018-10-09T19:36:12.978Z,20.20
2018-10-09T19:41:05.944Z,19.53
2018-10-09T19:45:58.717Z,21.20
2018-10-09T19:50:51.616Z,20.37
2018-10-09T19:55:44.131Z,23.20
2018-10-09T20:00:36.734Z,20.80
2018-10-09T20:05:29.422Z,22.77
2018-10-09T20:10:22.193Z,22.47
2018-10-09T20:15:14.866Z,21.40
2018-10-09T20:20:07.518Z,22.33
2018-10-09T20:25:00.132Z,21.87
2018-10-09T20:29:52.795Z,21.17
2018-10-09T20:34:45.466Z,22.13
2018-10-09T20:39:38.126Z,20.77
2018-10-09T20:44:30.693Z,19.73
2018-10-09T20:49:23.382Z,21.33
2018-10-09T20:54:16.018Z,21.43
2018-10-09T20:59:08.629Z,22.80
2018-10-09T21:04:01.188Z,22.60
2018-10-09T21:08:53.855Z,22.60
2018-10-09T21:13:46.506Z,22.70
2018-10-09T21:18:39.114Z,22.83
2018-10-09T21:23:31.878Z,22.90
2018-10-09T21:28:24.845Z,21.53
2018-10-09T21:33:17.428Z,21.70
2018-10-09T21:38:10.024Z,22.70
2018-10-09T21:43:02.719Z,23.07
2018-10-09T21:47:57.368Z,23.90
2018-10-09T21:52:50.366Z,24.27
2018-10-09T21:57:43.033Z,24.40
2018-10-09T22:02:35.731Z,24.37
2018-10-09T22:07:28.402Z,24.93
2018-10-09T22:12:21.208Z,25.80
2018-10-09T22:17:13.933Z,25.77
2018-10-09T22:22:06.585Z,26.50
2018-10-09T22:26:59.293Z,25.63
2018-10-09T22:31:51.907Z,25.97
2018-10-09T22:36:44.642Z,26.00
2018-10-09T22:41:37.382Z,28.10
2018-10-09T22:46:30.044Z,26.70
2018-10-09T22:51:22.704Z,29.80
2018-10-09T22:56:15.365Z,29.47
2018-10-09T23:01:07.999Z,29.53
2018-10-09T23:06:00.648Z,30.93
2018-10-09T23:10:53.390Z,28.77
2018-10-09T23:15:46.023Z,29.37
2018-10-09T23:20:38.775Z,30.57
2018-10-09T23:25:31.574Z,30.13
2018-10-09T23:30:24.281Z,32.10
2018-10-09T23:35:16.869Z,31.07
2018-10-09T23:40:09.461Z,31.23
2018-10-09T23:45:02.127Z,30.93
2018-10-09T23:49:54.834Z,29.07
2018-10-09T23:54:47.501Z,30.53
2018-10-09T23:59:40.112Z,29.50
